createdAt,value
2022-08-19T00:04:37.794Z,22.75
2022-08-19T00:09:41.109Z,22.82
2022-08-19T00:14:44.419Z,22.87
2022-08-19T00:19:47.833Z,22.87
2022-08-19T00:24:51.153Z,22.81
2022-08-19T00:29:55.173Z,22.73
2022-08-19T00:34:58.585Z,22.67
2022-08-19T00:40:03.975Z,22.61
2022-08-19T00:45:12.976Z,22.57
2022-08-19T00:50:19.566Z,22.57
2022-08-19T00:55:26.271Z,22.57
2022-08-19T01:00:31.425Z,22.53
2022-08-19T01:05:36.230Z,22.49
2022-08-19T01:10:44.905Z,22.39
2022-08-19T01:15:53.722Z,22.28
2022-08-19T01:21:03.404Z,22.20
2022-08-19T01:26:06.615Z,22.11
2022-08-19T01:31:27.158Z,22.03
2022-08-19T01:36:38.016Z,21.96
2022-08-19T01:41:41.327Z,21.91
2022-08-19T01:46:45.356Z,21.89
2022-08-19T01:51:50.580Z,21.88
2022-08-19T01:56:59.963Z,21.84
2022-08-19T02:02:05.407Z,21.78
2022-08-19T02:07:09.453Z,21.70
2022-08-19T02:12:12.764Z,21.64
2022-08-19T02:17:16.074Z,21.60
2022-08-19T02:22:19.386Z,21.57
2022-08-19T02:27:23.900Z,21.56
2022-08-19T02:32:27.237Z,21.57
2022-08-19T02:37:49.137Z,21.57
2022-08-19T02:42:53.334Z,21.55
2022-08-19T02:47:58.268Z,21.52
2022-08-19T02:53:01.780Z,21.48
2022-08-19T02:58:05.091Z,21.46
2022-08-19T03:03:11.986Z,21.46
2022-08-19T03:08:15.397Z,21.46
2022-08-19T03:13:19.634Z,21.49
2022-08-19T03:18:23.122Z,21.52
2022-08-19T03:23:26.765Z,21.53
2022-08-19T03:28:30.280Z,21.49
2022-08-19T03:33:34.718Z,21.45
2022-08-19T03:38:44.536Z,21.43
2022-08-19T03:43:48.712Z,21.41
2022-08-19T03:48:55.088Z,21.41
2022-08-19T03:54:00.610Z,21.43
2022-08-19T03:59:05.667Z,21.47
2022-08-19T04:04:09.693Z,21.52
2022-08-19T04:09:13.463Z,21.59
2022-08-19T04:14:20.560Z,21.67
2022-08-19T04:19:24.636Z,21.77
2022-08-19T04:24:29.638Z,21.87
2022-08-19T04:29:34.280Z,21.97
2022-08-19T04:35:01.533Z,22.09
2022-08-19T04:40:20.853Z,22.24
2022-08-19T04:45:24.056Z,22.43
2022-08-19T04:50:28.280Z,22.62
2022-08-19T04:55:34.355Z,22.87
2022-08-19T05:00:41.380Z,23.12
2022-08-19T05:05:49.889Z,23.36
2022-08-19T05:10:53.709Z,23.62
2022-08-19T05:15:58.710Z,23.87
2022-08-19T05:21:27.367Z,24.10
2022-08-19T05:26:30.777Z,24.33
2022-08-19T05:31:35.113Z,24.52
2022-08-19T05:36:42.487Z,24.68
2022-08-19T05:41:50.950Z,24.75
2022-08-19T05:46:55.032Z,24.82
2022-08-19T05:51:58.392Z,24.87
2022-08-19T05:57:02.693Z,24.91
2022-08-19T06:02:07.691Z,24.96
2022-08-19T06:07:12.132Z,25.03
2022-08-19T06:12:16.345Z,25.10
2022-08-19T06:17:23.958Z,25.22
2022-08-19T06:22:28.498Z,25.39
2022-08-19T06:27:33.241Z,25.58
2022-08-19T06:32:39.907Z,25.81
2022-08-19T06:37:47.054Z,26.04
2022-08-19T06:42:55.111Z,26.32
2022-08-19T06:47:58.651Z,26.58
2022-08-19T06:53:04.641Z,26.83
2022-08-19T06:58:08.138Z,27.09
2022-08-19T07:03:13.171Z,27.33
2022-08-19T07:08:16.653Z,27.51
2022-08-19T07:13:22.750Z,27.62
2022-08-19T07:18:26.177Z,27.78
2022-08-19T07:23:30.548Z,27.99
2022-08-19T07:28:34.273Z,28.29
2022-08-19T07:33:37.838Z,28.50
2022-08-19T07:38:45.519Z,28.67
2022-08-19T07:43:50.476Z,28.83
2022-08-19T07:48:53.868Z,29.04
2022-08-19T07:53:57.845Z,29.23
2022-08-19T07:59:02.127Z,29.38
2022-08-19T08:04:24.793Z,29.66
2022-08-19T08:09:29.639Z,29.95
2022-08-19T08:14:39.503Z,30.23
2022-08-19T08:19:48.240Z,30.48
2022-08-19T08:24:56.104Z,30.74
2022-08-19T08:29:59.777Z,30.91
2022-08-19T08:35:09.011Z,31.04
2022-08-19T08:40:27.755Z,31.21
2022-08-19T08:45:33.078Z,31.49
2022-08-19T08:50:48.757Z,31.81
2022-08-19T08:55:52.895Z,32.02
2022-08-19T09:00:56.199Z,32.22
2022-08-19T09:06:13.437Z,32.33
2022-08-19T09:11:42.772Z,32.49
2022-08-19T09:16:49.614Z,32.74
2022-08-19T09:21:52.879Z,32.91
2022-08-19T09:26:56.300Z,33.05
2022-08-19T09:32:00.669Z,33.27
2022-08-19T09:37:07.648Z,33.39
2022-08-19T09:42:16.189Z,33.40
2022-08-19T09:47:23.317Z,33.43
2022-08-19T09:52:32.627Z,33.45
2022-08-19T09:57:36.725Z,33.53
2022-08-19T10:02:39.747Z,33.50
2022-08-19T10:07:43.142Z,33.53
2022-08-19T10:12:48.831Z,33.55
2022-08-19T10:17:55.304Z,33.51
2022-08-19T10:23:00.611Z,33.66
2022-08-19T10:28:10.733Z,33.72
2022-08-19T10:33:15.089Z,33.84
2022-08-19T10:38:18.264Z,33.94
2022-08-19T10:43:21.574Z,33.95
2022-08-19T10:48:24.782Z,34.15
2022-08-19T10:53:28.195Z,34.32
2022-08-19T10:58:31.813Z,34.43
2022-08-19T11:03:35.026Z,34.44
2022-08-19T11:08:38.948Z,34.53
2022-08-19T11:13:44.103Z,34.62
2022-08-19T11:18:50.216Z,34.65
2022-08-19T11:23:56.486Z,34.74
2022-08-19T11:29:01.371Z,34.95
2022-08-19T11:34:07.202Z,35.11
2022-08-19T11:39:13.200Z,35.25
2022-08-19T11:44:16.359Z,35.36
2022-08-19T11:49:21.003Z,35.47
2022-08-19T11:54:24.107Z,35.61
2022-08-19T11:59:28.440Z,35.72
2022-08-19T12:04:32.982Z,35.85
2022-08-19T12:09:36.395Z,35.88
2022-08-19T12:14:47.801Z,35.84
2022-08-19T12:19:50.943Z,36.08
2022-08-19T12:24:55.133Z,36.24
2022-08-19T12:29:58.548Z,36.32
2022-08-19T12:35:02.369Z,36.38
2022-08-19T12:40:06.482Z,36.48
2022-08-19T12:45:11.854Z,36.51
2022-08-19T12:50:15.374Z,36.59
2022-08-19T12:55:20.091Z,36.88
2022-08-19T13:00:24.202Z,37.21
2022-08-19T13:05:30.831Z,37.59
2022-08-19T13:10:36.992Z,37.50
2022-08-19T13:15:42.521Z,37.35
2022-08-19T13:20:52.424Z,37.36
2022-08-19T13:26:01.079Z,37.39
2022-08-19T13:31:33.578Z,37.57
2022-08-19T13:36:38.117Z,37.78
2022-08-19T13:41:49.310Z,38.10
2022-08-19T13:46:54.515Z,38.55
2022-08-19T13:51:57.951Z,38.74
2022-08-19T13:57:01.192Z,38.58
2022-08-19T14:02:06.513Z,38.39
2022-08-19T14:07:10.873Z,38.16
2022-08-19T14:12:13.995Z,38.08
2022-08-19T14:17:17.365Z,38.62
2022-08-19T14:22:22.422Z,39.09
2022-08-19T14:27:26.505Z,38.44
2022-08-19T14:32:31.890Z,37.94
2022-08-19T14:37:45.451Z,37.65
2022-08-19T14:42:49.693Z,37.38
2022-08-19T14:47:53.652Z,37.63
2022-08-19T14:53:09.090Z,39.51
2022-08-19T14:58:29.583Z,41.82
2022-08-19T15:03:33.737Z,44.04
2022-08-19T15:08:40.221Z,46.66
2022-08-19T15:13:45.181Z,49.62
2022-08-19T15:18:51.497Z,51.97
2022-08-19T15:23:57.070Z,54.09
2022-08-19T15:29:02.337Z,55.40
2022-08-19T15:34:07.189Z,56.35
2022-08-19T15:39:11.013Z,56.47
2022-08-19T15:44:18.646Z,54.66
2022-08-19T15:49:23.033Z,51.73
2022-08-19T15:54:26.261Z,51.06
2022-08-19T15:59:48.313Z,51.80
2022-08-19T16:05:12.919Z,53.13
2022-08-19T16:10:26.969Z,53.85
2022-08-19T16:15:31.185Z,54.01
2022-08-19T16:20:35.619Z,53.36
2022-08-19T16:25:39.501Z,52.76
2022-08-19T16:30:48.577Z,52.49
2022-08-19T16:35:57.809Z,52.07
2022-08-19T16:41:08.250Z,51.07
2022-08-19T16:46:13.509Z,50.13
2022-08-19T16:51:23.046Z,49.22
2022-08-19T16:56:28.627Z,48.23
2022-08-19T17:01:31.901Z,46.54
2022-08-19T17:06:37.138Z,44.70
2022-08-19T17:11:40.302Z,43.05
2022-08-19T17:16:43.715Z,41.25
2022-08-19T17:21:47.487Z,39.53
2022-08-19T17:26:50.644Z,37.90
2022-08-19T17:31:54.160Z,36.56
2022-08-19T17:36:57.367Z,35.43
2022-08-19T17:42:02.684Z,34.48
2022-08-19T17:47:06.485Z,33.63
2022-08-19T17:52:10.191Z,32.84
2022-08-19T17:57:14.296Z,32.16
2022-08-19T18:02:19.866Z,31.52
2022-08-19T18:07:25.631Z,30.92
2022-08-19T18:12:28.940Z,30.39
2022-08-19T18:17:33.517Z,29.97
2022-08-19T18:22:39.386Z,29.61
2022-08-19T18:27:43.687Z,29.25
2022-08-19T18:32:49.974Z,28.92
2022-08-19T18:37:53.194Z,28.65
2022-08-19T18:43:11.790Z,28.43
2022-08-19T18:48:58.274Z,28.22
2022-08-19T18:54:01.784Z,28.02
2022-08-19T18:59:04.891Z,27.88
2022-08-19T19:04:13.631Z,27.74
2022-08-19T19:09:21.752Z,27.60
2022-08-19T19:14:50.569Z,27.50
2022-08-19T19:19:54.389Z,27.44
2022-08-19T19:24:59.582Z,27.33
2022-08-19T19:30:02.850Z,27.24
2022-08-19T19:35:09.555Z,27.18
2022-08-19T19:40:12.779Z,27.11
2022-08-19T19:45:17.231Z,27.02
2022-08-19T19:50:20.374Z,26.91
2022-08-19T19:55:26.864Z,26.87
2022-08-19T20:00:30.121Z,26.83
2022-08-19T20:05:33.168Z,26.84
2022-08-19T20:10:36.926Z,26.85
2022-08-19T20:15:42.664Z,26.89
2022-08-19T20:20:50.502Z,26.89
2022-08-19T20:25:54.589Z,26.89
2022-08-19T20:30:58.124Z,26.86
2022-08-19T20:36:02.033Z,26.85
2022-08-19T20:41:06.203Z,26.88
2022-08-19T20:46:09.697Z,26.85
2022-08-19T20:51:13.691Z,26.83
2022-08-19T20:56:16.908Z,26.77
2022-08-19T21:01:20.097Z,26.77
2022-08-19T21:06:24.089Z,26.71
2022-08-19T21:11:27.301Z,26.64
2022-08-19T21:16:32.825Z,26.63
2022-08-19T21:21:36.375Z,26.64
2022-08-19T21:26:39.999Z,26.61
2022-08-19T21:31:43.613Z,26.57
2022-08-19T21:36:46.926Z,26.57
2022-08-19T21:41:50.030Z,26.57
2022-08-19T21:46:53.236Z,26.54
2022-08-19T21:51:56.449Z,26.51
2022-08-19T21:56:59.540Z,26.48
2022-08-19T22:02:19.007Z,26.44
2022-08-19T22:07:23.143Z,26.42
2022-08-19T22:12:33.039Z,26.40
2022-08-19T22:17:36.861Z,26.38
2022-08-19T22:22:49.492Z,26.34
2022-08-19T22:27:56.842Z,26.31
2022-08-19T22:33:13.732Z,26.28
2022-08-19T22:38:17.038Z,26.24
2022-08-19T22:43:21.883Z,26.23
2022-08-19T22:48:28.405Z,26.19
2022-08-19T22:53:33.824Z,26.15
2022-08-19T22:58:37.074Z,26.11
2022-08-19T23:03:45.205Z,26.04
2022-08-19T23:08:48.458Z,25.97
2022-08-19T23:13:51.821Z,25.90
2022-08-19T23:18:56.079Z,25.69
2022-08-19T23:23:59.429Z,25.48
2022-08-19T23:29:21.483Z,25.27
2022-08-19T23:34:24.690Z,25.09
2022-08-19T23:39:30.063Z,24.94
2022-08-19T23:44:33.156Z,24.84
2022-08-19T23:49:37.919Z,24.74
2022-08-19T23:54:43.536Z,24.59
2022-08-19T23:59:46.945Z,24.32
